RU-0402 weather

Medvedkovskaya Airstrip
Medvedkovskaya, Krasnodar Krai, Russia

Public forecast

Using degrees Celsius for public forecast. Weather courtesy of forecast.io.

METAR (pilot weather report)

Closest report is Krasnodar Pashkovsky International Airport, 26.1 nm (48.3 km) SSE. Retrieved 2019/08/22 02:00 UTC (2 hours ago):

URKK 220200Z 13003MPS 070V160 CAVOK 22/13 Q1010 R05R/CLRD70 TEMPO VRB08G15MPS 2000 TSRA SCT007 BKN030CB RMK QFE754

TAF (pilot weather forecast)

Closest forecast is Krasnodar Pashkovsky International Airport, 26.1 nm (48.3 km) SSE. Retrieved 2019/08/22 03:21 UTC (15 minutes ago):

TAF URKK 220158Z 2203/2303 07003G08MPS 9999 SCT030CB PROB40 2203/2209 -TSRA